Time;durP1;ratioP1;P1;durP2;ratioP2;P2;SDS_P1;SDS_P2;PMS_P1;PMS_P2;Temp;Humidity;BMP_temperature;BMP_pressure;BME280_temperature;BME280_humidity;BME280_pressure;Samples;Min_cycle;Max_cycle;Signal;HPM_P1;HPM_P2
2023/01/27 00:00:24;;;;;;;26.60;12.30;;;1.50;37.10;;;;;;6033179;23;20440;-70
2023/01/27 00:02:51;;;;;;;20.40;11.50;;;1.50;37.10;;;;;;6032522;23;20430;-69
2023/01/27 00:05:18;;;;;;;19.20;9.97;;;1.50;36.90;;;;;;6033868;23;20421;-70
2023/01/27 00:07:45;;;;;;;18.67;10.60;;;1.50;37.00;;;;;;6033335;23;20785;-70
2023/01/27 00:10:15;;;;;;;21.20;11.30;;;1.50;36.90;;;;;;6033877;23;20539;-69
2023/01/27 00:15:30;;;;;;;20.47;10.70;;;1.50;36.90;;;;;;6034111;23;20882;-70
2023/01/27 00:17:56;;;;;;;17.00;8.53;;;1.40;36.90;;;;;;6033033;23;20423;-70
2023/01/27 00:25:57;;;;;;;18.23;9.83;;;1.50;36.40;;;;;;6033414;23;20407;-70
2023/01/27 00:28:25;;;;;;;17.23;8.53;;;1.50;36.50;;;;;;6033157;23;20606;-70
2023/01/27 00:30:53;;;;;;;17.13;8.70;;;1.50;36.50;;;;;;6032738;23;20442;-70
2023/01/27 00:33:24;;;;;;;20.47;10.27;;;1.50;36.60;;;;;;6034359;23;20427;-69
2023/01/27 00:35:56;;;;;;;18.33;9.30;;;1.50;36.50;;;;;;6033228;23;20404;-69
2023/01/27 00:38:23;;;;;;;18.57;8.77;;;1.40;36.50;;;;;;6033445;23;20795;-70
2023/01/27 00:43:31;;;;;;;17.40;9.00;;;1.40;36.50;;;;;;6033851;23;20514;-69
2023/01/27 00:45:59;;;;;;;19.40;8.90;;;1.40;36.40;;;;;;6032960;23;20483;-70
2023/01/27 00:48:25;;;;;;;17.23;10.00;;;1.40;36.30;;;;;;6033293;23;20495;-70
2023/01/27 00:50:52;;;;;;;18.10;9.67;;;1.40;36.30;;;;;;6033689;23;20420;-69
2023/01/27 00:53:19;;;;;;;15.57;8.20;;;1.40;36.30;;;;;;6033474;23;20423;-70
2023/01/27 00:55:46;;;;;;;16.30;9.40;;;1.50;36.10;;;;;;6032152;23;20420;-70
2023/01/27 00:58:14;;;;;;;19.70;10.80;;;1.40;36.00;;;;;;6033525;23;20417;-70
2023/01/27 01:00:40;;;;;;;17.30;9.00;;;1.40;36.10;;;;;;6033039;23;20440;-70
2023/01/27 01:03:09;;;;;;;16.93;9.03;;;1.40;36.20;;;;;;6032929;23;20420;-70
2023/01/27 01:05:35;;;;;;;19.93;11.17;;;1.40;36.10;;;;;;6033123;23;20785;-69
2023/01/27 01:08:02;;;;;;;19.67;9.77;;;1.40;36.00;;;;;;6033539;23;20444;-70
2023/01/27 01:10:29;;;;;;;19.70;10.47;;;1.40;36.10;;;;;;6032337;23;20735;-70
2023/01/27 01:12:56;;;;;;;21.13;11.30;;;1.40;36.00;;;;;;6032645;23;20425;-70
2023/01/27 01:15:22;;;;;;;18.37;9.57;;;1.40;36.00;;;;;;6033115;23;20429;-69
2023/01/27 01:17:49;;;;;;;16.13;9.10;;;1.40;36.00;;;;;;6033735;23;20420;-70
2023/01/27 01:20:17;;;;;;;17.77;9.90;;;1.40;36.00;;;;;;6029657;23;20455;-70
2023/01/27 01:22:44;;;;;;;17.80;9.57;;;1.40;36.10;;;;;;6031838;23;20424;-70
2023/01/27 01:25:11;;;;;;;16.57;10.23;;;1.40;36.10;;;;;;6032856;23;20442;-69
2023/01/27 01:27:37;;;;;;;19.20;9.63;;;1.40;35.90;;;;;;6031941;23;20421;-69
2023/01/27 01:30:05;;;;;;;16.07;9.07;;;1.30;35.90;;;;;;6032893;23;20448;-69
2023/01/27 01:32:31;;;;;;;15.27;8.80;;;1.30;36.00;;;;;;6031989;23;20440;-69
2023/01/27 01:34:59;;;;;;;17.80;9.23;;;1.30;35.90;;;;;;6033892;23;20428;-69
2023/01/27 01:37:27;;;;;;;15.87;8.80;;;1.40;35.90;;;;;;6033574;23;20545;-69
2023/01/27 01:39:53;;;;;;;17.90;9.10;;;1.40;36.00;;;;;;6032538;23;20440;-70
2023/01/27 01:42:20;;;;;;;19.00;8.97;;;1.40;36.00;;;;;;6031086;23;20450;-69
2023/01/27 01:44:47;;;;;;;14.20;8.30;;;1.40;35.70;;;;;;6033065;23;20420;-69
2023/01/27 01:47:16;;;;;;;16.57;7.97;;;1.40;35.60;;;;;;6041968;23;20427;-69
2023/01/27 01:49:46;;;;;;;16.73;9.00;;;1.40;35.70;;;;;;6031491;23;20448;-69
2023/01/27 01:52:18;;;;;;;15.47;7.80;;;1.30;35.90;;;;;;6033606;23;20405;-69
2023/01/27 01:54:49;;;;;;;16.17;8.40;;;1.30;36.00;;;;;;6034090;23;20405;-69
2023/01/27 01:57:19;;;;;;;16.20;8.77;;;1.30;36.10;;;;;;6033497;23;20420;-69
2023/01/27 01:59:50;;;;;;;18.20;9.70;;;1.30;36.10;;;;;;6032539;23;20444;-69
2023/01/27 02:02:21;;;;;;;14.80;7.57;;;1.30;36.10;;;;;;6031757;23;21037;-69
2023/01/27 02:04:56;;;;;;;17.60;8.10;;;1.30;36.10;;;;;;6032603;23;20411;-68
2023/01/27 02:07:29;;;;;;;14.67;8.60;;;1.30;36.10;;;;;;6041865;23;20442;-68
2023/01/27 02:10:00;;;;;;;16.20;9.03;;;1.30;36.00;;;;;;6030822;23;20452;-69
2023/01/27 02:12:27;;;;;;;18.33;9.83;;;1.30;36.10;;;;;;6032335;23;20412;-69
2023/01/27 02:14:54;;;;;;;17.97;9.80;;;1.30;36.20;;;;;;6033269;23;20420;-69
2023/01/27 02:17:21;;;;;;;18.23;8.93;;;1.30;36.20;;;;;;6032793;23;20430;-69
2023/01/27 02:19:58;;;;;;;17.00;10.00;;;1.30;36.20;;;;;;6032481;23;20447;-69
2023/01/27 02:22:31;;;;;;;18.93;10.33;;;1.30;36.30;;;;;;6033307;23;20404;-69
2023/01/27 02:25:07;;;;;;;15.80;9.10;;;1.30;36.20;;;;;;6033055;23;20411;-69
2023/01/27 02:27:35;;;;;;;16.87;8.50;;;1.30;36.30;;;;;;6044451;23;20400;-69
2023/01/27 02:30:01;;;;;;;16.93;9.10;;;1.30;36.20;;;;;;6034225;23;20455;-69
2023/01/27 02:32:28;;;;;;;15.77;9.03;;;1.30;36.30;;;;;;6033742;23;20482;-69
2023/01/27 02:34:56;;;;;;;20.27;10.80;;;1.30;36.30;;;;;;6035120;23;20926;-69
2023/01/27 02:37:23;;;;;;;17.73;9.07;;;1.30;36.20;;;;;;6034302;23;20424;-69
2023/01/27 02:39:52;;;;;;;16.03;9.47;;;1.30;36.20;;;;;;6034679;23;20443;-69
2023/01/27 02:42:20;;;;;;;13.93;8.17;;;1.30;36.20;;;;;;6034427;23;20424;-69
2023/01/27 02:44:48;;;;;;;15.10;8.37;;;1.30;36.10;;;;;;6034536;23;20424;-69
2023/01/27 02:47:14;;;;;;;13.40;7.60;;;1.30;36.10;;;;;;6033499;23;20420;-68
2023/01/27 02:49:41;;;;;;;13.30;7.70;;;1.30;36.10;;;;;;6035515;23;20458;-68
2023/01/27 02:52:08;;;;;;;18.27;10.40;;;1.30;36.10;;;;;;6034088;23;20454;-69
2023/01/27 02:54:35;;;;;;;15.30;7.93;;;1.30;36.00;;;;;;6032405;23;20427;-69
2023/01/27 02:57:01;;;;;;;15.47;8.03;;;1.30;36.10;;;;;;6031549;23;20420;-68
2023/01/27 02:59:28;;;;;;;14.00;7.67;;;1.30;36.00;;;;;;6034177;23;20444;-69
2023/01/27 03:01:56;;;;;;;13.53;7.00;;;1.30;36.00;;;;;;6033290;23;20440;-68
2023/01/27 03:04:23;;;;;;;13.60;7.47;;;1.30;36.00;;;;;;6032901;23;20420;-69
2023/01/27 03:06:50;;;;;;;12.77;7.30;;;1.30;36.00;;;;;;6034236;23;20758;-69
2023/01/27 03:09:16;;;;;;;13.53;7.10;;;1.30;36.00;;;;;;6034783;23;20452;-69
2023/01/27 03:19:58;;;;;;;13.50;7.30;;;1.30;36.10;;;;;;6034498;23;20473;-69
2023/01/27 03:22:25;;;;;;;16.13;6.83;;;1.30;36.10;;;;;;6033055;23;20763;-68
2023/01/27 03:24:51;;;;;;;13.30;6.40;;;1.30;36.10;;;;;;6034346;23;20424;-69
2023/01/27 03:27:18;;;;;;;14.17;8.00;;;1.30;36.10;;;;;;6034174;23;20420;-69
2023/01/27 03:29:57;;;;;;;12.37;6.30;;;1.30;36.20;;;;;;6033656;23;20447;-69
2023/01/27 03:32:29;;;;;;;14.50;7.27;;;1.30;36.20;;;;;;6030092;23;20446;-69
2023/01/27 03:34:57;;;;;;;15.07;7.30;;;1.30;36.30;;;;;;6033224;23;20404;-69
2023/01/27 03:48:24;;;;;;;14.73;7.93;;;1.40;36.30;;;;;;6034171;23;20435;-69
2023/01/27 03:50:52;;;;;;;16.47;7.47;;;1.40;36.40;;;;;;6033466;23;20420;-69
2023/01/27 03:53:20;;;;;;;15.77;7.17;;;1.40;36.40;;;;;;6033670;23;20424;-69
2023/01/27 03:55:46;;;;;;;18.17;7.83;;;1.40;36.40;;;;;;6034664;23;20424;-69
2023/01/27 03:58:19;;;;;;;19.47;8.80;;;1.40;36.50;;;;;;6034644;23;20431;-69
2023/01/27 04:00:46;;;;;;;15.83;8.07;;;1.50;36.50;;;;;;6032669;23;20436;-69
2023/01/27 04:14:04;;;;;;;23.23;10.23;;;1.40;36.50;;;;;;6061160;23;20733;-69
2023/01/27 04:16:31;;;;;;;16.77;10.20;;;1.40;36.60;;;;;;6062157;23;20455;-69
2023/01/27 04:18:57;;;;;;;18.63;9.30;;;1.40;36.60;;;;;;6061443;23;20427;-69
2023/01/27 04:21:26;;;;;;;18.03;8.00;;;1.40;36.60;;;;;;6032071;23;20443;-69
2023/01/27 04:23:53;;;;;;;15.97;9.40;;;1.40;36.70;;;;;;6033544;23;20494;-69
2023/01/27 04:26:20;;;;;;;15.07;8.63;;;1.40;36.70;;;;;;6032933;23;20424;-69
2023/01/27 04:28:47;;;;;;;18.93;8.27;;;1.40;36.70;;;;;;6034657;23;20420;-69
2023/01/27 04:31:23;;;;;;;17.03;8.40;;;1.40;36.80;;;;;;6032753;23;20431;-69
2023/01/27 04:33:50;;;;;;;17.13;7.90;;;1.40;37.00;;;;;;6035138;23;20415;-69
2023/01/27 04:36:16;;;;;;;16.93;8.50;;;1.30;36.90;;;;;;6033636;23;21272;-69
2023/01/27 04:38:45;;;;;;;19.13;9.10;;;1.40;36.90;;;;;;6032771;23;20417;-69
2023/01/27 04:41:12;;;;;;;18.20;8.50;;;1.40;37.00;;;;;;6033387;23;20797;-69
2023/01/27 04:43:38;;;;;;;16.33;8.77;;;1.40;36.90;;;;;;6033589;23;20426;-69
2023/01/27 04:46:05;;;;;;;17.37;8.90;;;1.40;36.90;;;;;;6034064;23;21105;-69
2023/01/27 04:48:32;;;;;;;17.00;9.63;;;1.40;37.00;;;;;;6034305;23;20882;-69
2023/01/27 04:50:59;;;;;;;15.73;8.83;;;1.40;37.00;;;;;;6032544;23;20448;-69
2023/01/27 04:53:25;;;;;;;17.87;9.90;;;1.40;37.00;;;;;;6033237;23;20436;-69
2023/01/27 04:56:01;;;;;;;18.33;9.93;;;1.40;37.10;;;;;;6032665;23;20420;-69
2023/01/27 04:58:28;;;;;;;22.87;9.60;;;1.40;37.20;;;;;;6034357;23;20411;-69
2023/01/27 05:00:55;;;;;;;19.47;9.57;;;1.40;37.20;;;;;;6031636;23;20466;-69
2023/01/27 05:03:21;;;;;;;18.63;9.20;;;1.40;37.30;;;;;;6034372;23;20471;-69
2023/01/27 05:05:48;;;;;;;14.93;8.50;;;1.40;37.30;;;;;;6031953;23;20431;-69
2023/01/27 05:08:15;;;;;;;19.23;9.00;;;1.40;37.40;;;;;;6032654;23;20462;-69
2023/01/27 05:10:44;;;;;;;17.00;9.10;;;1.40;37.50;;;;;;6032383;23;20479;-69
2023/01/27 05:13:12;;;;;;;19.10;10.10;;;1.40;37.50;;;;;;6033840;23;20420;-69
2023/01/27 05:15:39;;;;;;;18.23;9.70;;;1.40;37.40;;;;;;6033663;23;20427;-69
2023/01/27 05:18:05;;;;;;;16.33;9.60;;;1.40;37.20;;;;;;6033108;23;20907;-69
2023/01/27 05:20:32;;;;;;;15.50;8.40;;;1.40;37.30;;;;;;6033195;23;20955;-69
2023/01/27 05:25:42;;;;;;;17.20;8.93;;;1.30;37.20;;;;;;6032939;23;20906;-69
2023/01/27 05:28:09;;;;;;;17.27;8.73;;;1.30;37.10;;;;;;6033912;23;20423;-69
2023/01/27 05:30:37;;;;;;;17.03;8.57;;;1.30;37.10;;;;;;6031216;23;20440;-69
2023/01/27 05:33:04;;;;;;;17.13;8.50;;;1.20;37.20;;;;;;6033013;23;21038;-69
2023/01/27 05:35:33;;;;;;;17.80;9.70;;;1.20;37.40;;;;;;6033676;23;20427;-69
2023/01/27 05:37:59;;;;;;;19.00;10.23;;;1.20;37.50;;;;;;6032972;23;20750;-69
2023/01/27 05:40:26;;;;;;;23.93;10.80;;;1.20;38.10;;;;;;6033116;23;20440;-69
2023/01/27 05:42:53;;;;;;;22.83;11.27;;;1.20;37.70;;;;;;6032587;23;20421;-69
2023/01/27 05:45:20;;;;;;;19.03;10.50;;;1.20;37.80;;;;;;6033876;23;20429;-69
2023/01/27 05:47:50;;;;;;;18.47;9.67;;;1.20;37.80;;;;;;6031080;23;20425;-69
2023/01/27 05:50:18;;;;;;;20.57;9.87;;;1.20;37.80;;;;;;6032437;23;20504;-68
2023/01/27 05:52:45;;;;;;;18.33;9.77;;;1.20;37.90;;;;;;6031424;23;20483;-68
2023/01/27 05:55:11;;;;;;;20.80;10.33;;;1.20;38.00;;;;;;6033006;23;20427;-69
2023/01/27 05:57:38;;;;;;;18.20;9.77;;;1.10;38.10;;;;;;6031888;23;20431;-69
2023/01/27 06:00:05;;;;;;;23.10;11.47;;;1.10;38.20;;;;;;6032308;23;20755;-67
2023/01/27 06:02:32;;;;;;;20.20;9.60;;;1.10;38.20;;;;;;6030727;23;20453;-69
2023/01/27 06:05:00;;;;;;;18.83;10.47;;;1.10;38.20;;;;;;6032933;23;20447;-68
2023/01/27 06:07:27;;;;;;;18.57;9.57;;;1.10;38.30;;;;;;6033994;23;20419;-68
2023/01/27 06:09:54;;;;;;;19.70;10.10;;;1.10;38.30;;;;;;6031893;23;20448;-68
2023/01/27 06:12:20;;;;;;;23.00;10.30;;;1.10;38.40;;;;;;6031644;23;20428;-69
2023/01/27 06:14:47;;;;;;;21.40;10.80;;;1.10;38.40;;;;;;6032890;23;20421;-69
2023/01/27 06:17:14;;;;;;;16.30;7.83;;;1.20;38.50;;;;;;6031045;23;20759;-68
2023/01/27 06:19:41;;;;;;;22.20;10.17;;;1.20;38.30;;;;;;6031773;23;20440;-68
2023/01/27 06:22:09;;;;;;;18.40;9.47;;;1.20;38.30;;;;;;6031313;23;20420;-69
2023/01/27 06:24:35;;;;;;;15.43;8.20;;;1.20;38.20;;;;;;6031993;23;20923;-69
2023/01/27 06:27:02;;;;;;;17.80;9.47;;;1.20;38.20;;;;;;6028478;23;20424;-69
2023/01/27 06:29:29;;;;;;;18.63;11.23;;;1.20;38.30;;;;;;6031043;23;20427;-69
2023/01/27 06:31:55;;;;;;;21.57;12.53;;;1.20;39.20;;;;;;6031900;23;20204;-68
2023/01/27 06:34:22;;;;;;;22.13;11.10;;;1.30;38.30;;;;;;6033090;23;20425;-67
2023/01/27 06:36:49;;;;;;;23.93;9.60;;;1.30;38.00;;;;;;6028067;23;20467;-67
2023/01/27 06:39:17;;;;;;;22.27;10.40;;;1.30;37.90;;;;;;6031259;23;20447;-68
2023/01/27 06:41:43;;;;;;;19.83;9.47;;;1.20;37.80;;;;;;6028660;23;20424;-68
2023/01/27 06:44:11;;;;;;;23.30;8.93;;;1.20;37.80;;;;;;6032945;23;20947;-68
2023/01/27 06:46:37;;;;;;;18.67;10.70;;;1.20;37.80;;;;;;6029967;23;20507;-67
2023/01/27 06:49:04;;;;;;;16.17;9.00;;;1.20;37.70;;;;;;6032941;23;20427;-68
2023/01/27 06:51:31;;;;;;;21.20;10.00;;;1.20;37.60;;;;;;6033075;23;20970;-67
2023/01/27 06:53:57;;;;;;;19.40;10.40;;;1.20;37.70;;;;;;6033302;23;20427;-68
2023/01/27 06:56:25;;;;;;;18.20;10.10;;;1.10;37.90;;;;;;6032176;23;21248;-67
2023/01/27 06:58:52;;;;;;;19.13;9.30;;;1.10;38.00;;;;;;6032928;23;20431;-68
2023/01/27 07:01:20;;;;;;;16.87;9.10;;;1.10;38.10;;;;;;6032327;23;20440;-67
2023/01/27 07:03:47;;;;;;;18.60;8.83;;;1.10;37.90;;;;;;6031671;23;20892;-67
2023/01/27 07:06:15;;;;;;;19.27;10.33;;;1.10;38.00;;;;;;6032361;23;20424;-67
2023/01/27 07:08:44;;;;;;;24.33;10.20;;;1.10;37.90;;;;;;6031350;23;20911;-67
2023/01/27 07:11:11;;;;;;;19.10;10.50;;;1.10;37.90;;;;;;6031304;23;20634;-67
2023/01/27 07:13:39;;;;;;;19.33;10.40;;;1.10;38.00;;;;;;6031157;23;20419;-68
2023/01/27 07:16:06;;;;;;;19.90;10.17;;;1.10;38.10;;;;;;6034628;23;20424;-67
2023/01/27 07:18:33;;;;;;;18.50;10.27;;;1.10;38.00;;;;;;6033578;23;20450;-67
2023/01/27 07:20:59;;;;;;;19.50;10.87;;;1.10;38.10;;;;;;6035119;23;20438;-68
2023/01/27 07:23:26;;;;;;;20.30;10.53;;;1.10;38.20;;;;;;6033157;23;20420;-67
2023/01/27 07:25:53;;;;;;;19.67;10.00;;;1.10;38.20;;;;;;6034917;23;20423;-68
2023/01/27 07:28:20;;;;;;;21.10;11.23;;;1.10;38.10;;;;;;6031343;23;20556;-67
2023/01/27 07:30:48;;;;;;;21.40;11.37;;;1.10;38.00;;;;;;6030237;23;20450;-68
2023/01/27 07:33:15;;;;;;;22.30;12.57;;;1.10;37.90;;;;;;6034398;23;20417;-68
2023/01/27 07:35:42;;;;;;;20.23;11.20;;;1.10;38.00;;;;;;6034999;23;20431;-67
2023/01/27 07:38:09;;;;;;;23.50;12.97;;;1.10;38.00;;;;;;6034042;23;20424;-68
2023/01/27 07:40:36;;;;;;;20.47;10.40;;;1.10;38.20;;;;;;6033990;23;20440;-67
2023/01/27 07:43:03;;;;;;;23.10;10.80;;;1.10;38.10;;;;;;6034032;23;20448;-68
2023/01/27 07:45:30;;;;;;;16.90;9.77;;;1.10;38.00;;;;;;6033039;23;20842;-68
2023/01/27 07:48:02;;;;;;;21.90;11.23;;;1.10;38.00;;;;;;6033885;23;21132;-67
2023/01/27 07:50:29;;;;;;;22.20;11.67;;;1.10;37.90;;;;;;6033441;23;20523;-68
2023/01/27 07:52:58;;;;;;;22.90;12.30;;;1.10;37.80;;;;;;6033194;23;21029;-68
2023/01/27 07:55:25;;;;;;;20.83;12.70;;;1.10;37.70;;;;;;6031233;23;20431;-68
2023/01/27 07:57:53;;;;;;;20.43;11.70;;;1.20;37.30;;;;;;6034561;23;20427;-67
2023/01/27 08:00:21;;;;;;;22.20;11.60;;;1.20;37.20;;;;;;6030283;23;20879;-67
2023/01/27 08:02:51;;;;;;;21.27;11.43;;;1.10;37.20;;;;;;6032586;23;20412;-63
2023/01/27 08:05:19;;;;;;;19.50;11.23;;;1.10;37.30;;;;;;6031795;23;20460;-63
2023/01/27 08:07:46;;;;;;;23.33;12.93;;;1.10;37.10;;;;;;6030702;23;20452;-62
2023/01/27 08:10:13;;;;;;;19.90;11.30;;;1.10;37.10;;;;;;6029880;23;20464;-63
2023/01/27 08:12:40;;;;;;;20.90;11.63;;;1.10;37.30;;;;;;6031235;23;20428;-62
2023/01/27 08:15:07;;;;;;;24.27;11.70;;;1.00;37.30;;;;;;6032824;23;20416;-63
2023/01/27 08:17:34;;;;;;;20.20;11.77;;;1.10;37.30;;;;;;6033332;23;20431;-63
2023/01/27 08:20:01;;;;;;;22.23;12.80;;;1.10;37.40;;;;;;6032623;23;20786;-63
2023/01/27 08:22:29;;;;;;;22.63;12.40;;;1.10;37.40;;;;;;6032847;23;20475;-63
2023/01/27 08:24:56;;;;;;;20.17;11.53;;;1.10;37.30;;;;;;6033184;23;20420;-63
2023/01/27 08:27:23;;;;;;;20.47;11.10;;;1.10;37.10;;;;;;6033082;23;20927;-63
2023/01/27 08:29:50;;;;;;;28.13;11.77;;;1.10;36.90;;;;;;6033489;23;20950;-63
2023/01/27 08:32:16;;;;;;;19.53;11.47;;;1.10;36.60;;;;;;6027525;23;20440;-64
2023/01/27 08:34:43;;;;;;;20.67;11.70;;;1.20;36.50;;;;;;6030828;23;20759;-64
2023/01/27 08:37:10;;;;;;;21.60;12.47;;;1.20;36.50;;;;;;6033042;23;20424;-63
2023/01/27 08:39:38;;;;;;;21.70;12.00;;;1.20;36.30;;;;;;6042284;23;20443;-64
2023/01/27 08:42:05;;;;;;;27.57;14.27;;;1.20;36.50;;;;;;6034519;23;20423;-64
2023/01/27 08:44:32;;;;;;;19.73;11.10;;;1.20;36.40;;;;;;6032845;23;20424;-64
2023/01/27 08:46:59;;;;;;;19.77;10.90;;;1.30;36.50;;;;;;6032998;23;20427;-64
2023/01/27 08:49:25;;;;;;;22.30;11.90;;;1.30;36.50;;;;;;6032961;23;20448;-64
2023/01/27 08:51:52;;;;;;;21.40;10.63;;;1.40;36.40;;;;;;6034292;23;20448;-64
2023/01/27 08:54:19;;;;;;;19.53;10.37;;;1.40;36.50;;;;;;6032985;23;20431;-64
2023/01/27 08:56:47;;;;;;;20.70;11.10;;;1.40;36.50;;;;;;6034128;23;20655;-64
2023/01/27 08:59:14;;;;;;;17.67;9.90;;;1.40;36.50;;;;;;6034289;23;20444;-64
2023/01/27 09:01:41;;;;;;;22.53;12.33;;;1.40;36.50;;;;;;6034246;23;20443;-64
2023/01/27 09:04:08;;;;;;;18.33;9.97;;;1.40;36.50;;;;;;6034072;23;20420;-64
2023/01/27 09:06:34;;;;;;;20.23;10.63;;;1.50;36.70;;;;;;6033839;23;20426;-64
2023/01/27 09:09:10;;;;;;;18.03;10.33;;;1.40;36.30;;;;;;6033933;23;20794;-64
2023/01/27 09:11:39;;;;;;;20.53;10.63;;;1.50;36.50;;;;;;6033666;23;20463;-62
2023/01/27 09:14:07;;;;;;;24.93;10.43;;;1.40;36.10;;;;;;6033672;23;20428;-63
2023/01/27 09:16:34;;;;;;;20.63;10.60;;;1.40;36.30;;;;;;6033512;23;20424;-63
2023/01/27 09:19:01;;;;;;;21.43;10.90;;;1.40;36.20;;;;;;6033571;23;20431;-63
2023/01/27 09:21:28;;;;;;;22.43;11.90;;;1.40;36.30;;;;;;6034129;23;20416;-63
2023/01/27 09:23:55;;;;;;;21.63;11.20;;;1.40;36.40;;;;;;6033864;23;20419;-63
2023/01/27 09:26:21;;;;;;;20.40;10.60;;;1.50;36.40;;;;;;6033267;23;20443;-63
2023/01/27 09:28:48;;;;;;;20.97;10.57;;;1.50;36.40;;;;;;6032895;23;20446;-63
2023/01/27 09:31:16;;;;;;;20.83;10.63;;;1.50;36.50;;;;;;6031694;23;20440;-63
2023/01/27 09:33:43;;;;;;;19.20;9.80;;;1.50;36.50;;;;;;6033695;23;20427;-63
2023/01/27 09:36:14;;;;;;;18.10;8.87;;;1.20;36.30;;;;;;6031298;23;20511;-63
2023/01/27 09:38:45;;;;;;;14.53;8.20;;;1.60;36.30;;;;;;6031123;23;20412;-63
2023/01/27 09:41:31;;;;;;;20.10;8.93;;;1.60;36.30;;;;;;6033647;23;20982;-63
2023/01/27 09:44:22;;;;;;;18.03;8.40;;;1.60;36.30;;;;;;6033533;23;20408;-63
2023/01/27 09:47:11;;;;;;;18.17;8.17;;;1.60;36.20;;;;;;6033769;23;20769;-63
2023/01/27 09:50:00;;;;;;;17.40;9.00;;;1.70;36.20;;;;;;6032136;23;20447;-63
2023/01/27 09:52:48;;;;;;;19.27;8.50;;;1.70;36.10;;;;;;6030268;23;20432;-63
2023/01/27 09:55:21;;;;;;;20.33;9.03;;;1.70;36.20;;;;;;6032458;23;20900;-63
2023/01/27 09:57:55;;;;;;;18.53;10.10;;;1.70;36.10;;;;;;6029918;23;20898;-63
2023/01/27 10:00:33;;;;;;;19.73;10.17;;;1.80;36.00;;;;;;6028954;23;20938;-63
2023/01/27 10:03:36;;;;;;;16.93;9.17;;;1.80;35.60;;;;;;6033637;23;20699;-63
2023/01/27 10:06:21;;;;;;;16.20;7.57;;;1.90;35.60;;;;;;6034297;23;20404;-63
2023/01/27 10:09:19;;;;;;;16.53;8.60;;;1.90;35.50;;;;;;6032523;23;20949;-63
2023/01/27 10:11:55;;;;;;;18.20;7.70;;;1.90;35.60;;;;;;6033060;23;20432;-63
2023/01/27 10:14:32;;;;;;;18.57;7.80;;;1.90;35.60;;;;;;6033216;23;20411;-63
2023/01/27 10:17:25;;;;;;;16.20;8.93;;;1.90;35.50;;;;;;6032681;23;20404;-63
2023/01/27 10:20:12;;;;;;;18.90;9.33;;;1.80;35.30;;;;;;6032705;23;20801;-63
2023/01/27 10:22:50;;;;;;;19.50;9.10;;;1.80;35.30;;;;;;6033005;23;20710;-63
2023/01/27 10:25:32;;;;;;;19.63;8.80;;;1.90;35.30;;;;;;6032347;23;20484;-63
2023/01/27 10:28:06;;;;;;;16.10;8.60;;;1.80;35.30;;;;;;6033903;23;20407;-63
2023/01/27 10:30:35;;;;;;;17.27;9.43;;;1.90;35.50;;;;;;6030865;23;20440;-63
2023/01/27 10:33:16;;;;;;;18.87;9.30;;;1.90;35.60;;;;;;6033495;23;20427;-63
2023/01/27 10:35:52;;;;;;;18.90;8.70;;;1.80;35.60;;;;;;6028417;23;20431;-63
2023/01/27 10:38:35;;;;;;;20.00;9.03;;;1.80;35.50;;;;;;6032211;23;20879;-63
2023/01/27 10:41:12;;;;;;;16.17;7.80;;;1.90;35.70;;;;;;6031328;23;20508;-63
2023/01/27 10:43:52;;;;;;;18.23;8.43;;;1.90;35.70;;;;;;6030282;23;20408;-63
2023/01/27 10:46:29;;;;;;;19.10;7.30;;;1.90;35.60;;;;;;6032533;23;20403;-63
2023/01/27 10:49:01;;;;;;;17.17;8.10;;;1.90;35.50;;;;;;6034934;23;20404;-63
2023/01/27 10:51:33;;;;;;;18.10;9.37;;;1.80;35.60;;;;;;6032402;23;20432;-63
2023/01/27 10:54:05;;;;;;;17.90;7.90;;;1.90;35.70;;;;;;6034032;23;20404;-63
2023/01/27 10:56:38;;;;;;;18.30;7.20;;;1.90;35.70;;;;;;6035496;23;20404;-63
2023/01/27 10:59:12;;;;;;;15.70;7.37;;;1.90;35.70;;;;;;6033990;23;20415;-63
2023/01/27 11:01:44;;;;;;;17.90;7.60;;;1.90;35.60;;;;;;6033690;23;20436;-63
2023/01/27 11:04:15;;;;;;;17.63;7.40;;;1.90;35.70;;;;;;6033516;23;20431;-63
2023/01/27 11:06:45;;;;;;;13.40;6.83;;;2.00;35.60;;;;;;6034852;23;20944;-63
2023/01/27 11:09:25;;;;;;;16.50;7.00;;;2.00;35.50;;;;;;6034441;23;20455;-63
2023/01/27 11:11:53;;;;;;;15.03;8.10;;;2.00;35.60;;;;;;6033869;23;20438;-63
2023/01/27 11:14:25;;;;;;;17.63;8.13;;;2.00;35.40;;;;;;6030688;23;20424;-63
2023/01/27 11:16:55;;;;;;;18.70;7.90;;;2.00;35.30;;;;;;6029287;23;20415;-63
2023/01/27 11:19:34;;;;;;;15.07;7.60;;;2.10;35.40;;;;;;6030880;23;20618;-63
2023/01/27 11:22:03;;;;;;;17.40;8.13;;;2.10;35.30;;;;;;6032020;23;20400;-63
2023/01/27 11:24:36;;;;;;;16.10;7.00;;;2.20;35.10;;;;;;6033671;23;20423;-62
2023/01/27 11:27:12;;;;;;;15.67;9.20;;;2.20;35.20;;;;;;6034494;23;20408;-63
2023/01/27 11:29:45;;;;;;;17.97;8.20;;;2.30;35.40;;;;;;6034012;23;20439;-63
2023/01/27 11:32:20;;;;;;;17.00;9.70;;;2.50;34.90;;;;;;6033244;23;20448;-63
2023/01/27 11:34:59;;;;;;;16.40;8.73;;;2.50;34.70;;;;;;6032897;23;20460;-63
2023/01/27 11:37:32;;;;;;;16.83;7.70;;;2.60;34.60;;;;;;6033520;23;20411;-63
2023/01/27 11:39:58;;;;;;;15.10;8.13;;;2.70;34.40;;;;;;6034108;23;20440;-63
2023/01/27 11:42:31;;;;;;;18.03;7.87;;;2.80;34.20;;;;;;6033953;23;20416;-63
2023/01/27 11:44:59;;;;;;;16.63;9.30;;;2.90;34.30;;;;;;6033964;23;20880;-63
2023/01/27 11:47:30;;;;;;;15.67;7.43;;;3.10;34.30;;;;;;6034330;23;20424;-63
2023/01/27 11:49:57;;;;;;;18.07;7.93;;;3.30;33.70;;;;;;6032785;23;20447;-63
2023/01/27 11:52:25;;;;;;;15.20;7.37;;;3.40;32.70;;;;;;6033165;23;20444;-63
2023/01/27 11:54:59;;;;;;;14.70;7.63;;;3.40;32.60;;;;;;6034562;23;20420;-63
2023/01/27 11:57:27;;;;;;;13.87;6.37;;;3.30;32.40;;;;;;6034317;23;20519;-63
2023/01/27 11:59:58;;;;;;;16.17;8.00;;;3.30;32.30;;;;;;6033603;23;20440;-63
2023/01/27 12:02:30;;;;;;;13.17;7.20;;;3.30;32.20;;;;;;6031440;23;20780;-63
2023/01/27 12:05:03;;;;;;;18.73;8.03;;;3.20;32.20;;;;;;6033031;23;20408;-63
2023/01/27 12:07:41;;;;;;;15.50;8.10;;;3.20;31.90;;;;;;6034852;23;20404;-63
2023/01/27 12:10:28;;;;;;;14.33;6.83;;;3.20;31.60;;;;;;6032759;23;20448;-63
2023/01/27 12:12:55;;;;;;;13.63;6.90;;;3.10;31.30;;;;;;6033429;23;20479;-63
2023/01/27 12:15:25;;;;;;;16.93;8.43;;;3.10;31.00;;;;;;6033379;23;20424;-63
2023/01/27 12:17:54;;;;;;;14.83;7.27;;;3.00;30.90;;;;;;6035047;23;20621;-63
2023/01/27 12:20:40;;;;;;;13.90;7.20;;;3.00;31.30;;;;;;6033626;23;20775;-64
2023/01/27 12:23:19;;;;;;;12.60;6.33;;;3.00;31.70;;;;;;6033144;23;20409;-63
2023/01/27 12:25:52;;;;;;;14.90;6.70;;;3.10;31.80;;;;;;6032824;23;20767;-63
2023/01/27 12:28:28;;;;;;;13.43;7.03;;;3.20;31.80;;;;;;6032508;23;20400;-63
2023/01/27 12:30:57;;;;;;;13.37;7.37;;;3.50;31.60;;;;;;6031419;23;20436;-62
2023/01/27 12:33:29;;;;;;;13.43;6.20;;;3.70;31.40;;;;;;6031791;23;20444;-62
2023/01/27 12:36:00;;;;;;;13.43;6.90;;;3.90;30.90;;;;;;6032571;23;20416;-63
2023/01/27 12:38:30;;;;;;;11.97;6.07;;;4.10;30.10;;;;;;6032881;23;20413;-62
2023/01/27 12:41:01;;;;;;;12.87;6.60;;;4.30;29.80;;;;;;6031475;23;20446;-63
2023/01/27 12:43:28;;;;;;;11.37;6.30;;;4.30;28.80;;;;;;6033595;23;20401;-63
2023/01/27 12:46:20;;;;;;;15.27;7.10;;;4.30;28.40;;;;;;6032309;23;20428;-63
2023/01/27 12:48:49;;;;;;;11.70;5.67;;;4.40;28.00;;;;;;6034141;23;20411;-63
2023/01/27 12:51:19;;;;;;;11.87;5.70;;;4.40;27.30;;;;;;6033266;23;20488;-63
2023/01/27 12:53:48;;;;;;;12.40;6.40;;;4.30;27.10;;;;;;6034684;23;20520;-63
2023/01/27 12:56:19;;;;;;;11.70;6.40;;;4.30;26.90;;;;;;6032680;23;20424;-63
2023/01/27 12:58:55;;;;;;;12.73;6.87;;;4.30;27.00;;;;;;6032960;23;20405;-64
2023/01/27 13:01:26;;;;;;;11.83;6.40;;;4.30;27.00;;;;;;6027618;23;20440;-61
2023/01/27 13:03:56;;;;;;;13.93;6.47;;;4.30;27.00;;;;;;6033306;23;20473;-63
2023/01/27 13:06:40;;;;;;;14.70;6.87;;;4.30;26.90;;;;;;6032631;23;20572;-63
2023/01/27 13:09:27;;;;;;;10.77;5.77;;;4.20;26.80;;;;;;6033541;23;20439;-63
2023/01/27 13:11:57;;;;;;;13.20;6.47;;;4.20;27.00;;;;;;6028314;23;20443;-63
2023/01/27 13:14:28;;;;;;;13.77;5.93;;;4.20;27.20;;;;;;6033252;23;20423;-63
2023/01/27 13:16:58;;;;;;;14.93;7.43;;;4.10;27.20;;;;;;6032510;23;20903;-63
2023/01/27 13:19:34;;;;;;;13.97;6.90;;;3.90;27.30;;;;;;6031587;23;20492;-63
2023/01/27 13:22:03;;;;;;;13.97;6.57;;;3.90;27.50;;;;;;6032574;23;20400;-63
2023/01/27 13:24:34;;;;;;;12.57;6.13;;;3.80;27.50;;;;;;6033154;23;20420;-63
2023/01/27 13:27:05;;;;;;;14.00;6.73;;;3.70;27.60;;;;;;6033547;23;20400;-63
2023/01/27 13:29:34;;;;;;;15.20;7.17;;;3.70;27.60;;;;;;6033380;23;20436;-63
2023/01/27 13:32:05;;;;;;;15.40;7.73;;;3.70;27.80;;;;;;6032525;23;20444;-63
2023/01/27 13:34:39;;;;;;;15.87;7.10;;;3.70;28.00;;;;;;6032800;23;20456;-63
2023/01/27 13:37:13;;;;;;;16.10;8.60;;;3.70;27.90;;;;;;6032883;23;20465;-63
2023/01/27 13:39:53;;;;;;;13.37;6.53;;;3.70;27.90;;;;;;6033377;23;20448;-61